createdAt,value
2017-05-28T00:04:13.324Z,87.96
2017-05-28T00:24:13.797Z,90.61
2017-05-28T00:44:14.096Z,79.15
2017-05-28T01:04:14.488Z,78.94
2017-05-28T01:24:14.963Z,60.51
2017-05-28T01:44:15.381Z,23.26
2017-05-28T02:04:15.836Z,43.07
2017-05-28T02:24:16.128Z,86.63
2017-05-28T02:43:33.259Z,86.89
2017-05-28T03:03:32.707Z,100.00
2017-05-28T03:23:33.234Z,100.00
2017-05-28T03:43:33.660Z,100.00
2017-05-28T04:03:34.217Z,100.00
2017-05-28T04:23:34.534Z,100.00
2017-05-28T04:43:35.045Z,100.00
2017-05-28T05:03:35.593Z,100.00
2017-05-28T05:23:35.978Z,100.00
2017-05-28T05:43:36.541Z,100.00
2017-05-28T06:03:37.029Z,100.00
2017-05-28T06:23:37.599Z,99.99
2017-05-28T06:43:38.004Z,100.00
2017-05-28T07:03:38.533Z,99.96
2017-05-28T07:23:38.974Z,73.06
2017-05-28T07:43:39.500Z,6.89
2017-05-28T08:03:40.064Z,30.95
2017-05-28T08:23:40.424Z,23.70
2017-05-28T08:43:40.889Z,9.72
2017-05-28T09:03:41.293Z,41.67
2017-05-28T09:23:41.775Z,62.41
2017-05-28T09:43:42.281Z,96.22
2017-05-28T10:03:42.776Z,99.62
2017-05-28T10:23:43.317Z,93.42
2017-05-28T10:43:43.801Z,96.41
2017-05-28T11:03:44.325Z,99.13
2017-05-28T11:23:44.848Z,85.95
2017-05-28T11:43:45.333Z,67.67
2017-05-28T12:03:45.790Z,54.14
2017-05-28T12:48:46.940Z,9.86
2017-05-28T13:08:47.438Z,31.60
2017-05-28T13:28:47.986Z,7.28
2017-05-28T13:48:48.467Z,3.01
2017-05-28T14:08:48.935Z,9.19
2017-05-28T14:28:49.503Z,79.46
2017-05-28T14:48:49.996Z,99.30
2017-05-28T15:08:50.475Z,99.03
2017-05-28T15:28:50.956Z,100.00
2017-05-28T15:48:51.487Z,98.79
2017-05-28T16:08:51.985Z,100.00
2017-05-28T16:28:52.470Z,100.00
2017-05-28T16:48:53.002Z,94.05
2017-05-28T17:08:53.539Z,60.32
2017-05-28T17:28:53.977Z,35.36
2017-05-28T17:48:54.419Z,17.54
2017-05-28T18:08:54.878Z,99.44
2017-05-28T18:28:55.387Z,100.00
2017-05-28T18:48:55.904Z,99.79
2017-05-28T19:08:56.404Z,100.00
2017-05-28T19:28:56.959Z,74.21
2017-05-28T19:48:57.390Z,93.03
2017-05-28T20:09:42.332Z,69.77
2017-05-28T20:29:42.831Z,78.25
2017-05-28T20:49:43.301Z,81.12
2017-05-28T21:09:43.815Z,40.40
2017-05-28T21:29:44.295Z,56.45
2017-05-28T21:49:44.741Z,72.17
2017-05-28T22:09:45.229Z,92.17
2017-05-28T22:29:45.669Z,68.09
2017-05-28T22:49:46.192Z,64.61
2017-05-28T23:09:46.529Z,63.46
2017-05-28T23:29:47.064Z,78.19
2017-05-28T23:49:47.498Z,75.31
